createdAt,value
2018-06-30T00:02:21.818Z,8.93
2018-06-30T00:04:51.907Z,8.47
2018-06-30T00:07:20.886Z,8.53
2018-06-30T00:09:48.652Z,10.20
2018-06-30T00:12:16.647Z,8.17
2018-06-30T00:14:44.450Z,6.67
2018-06-30T00:17:12.988Z,6.77
2018-06-30T00:19:40.771Z,7.37
2018-06-30T00:22:08.688Z,7.47
2018-06-30T00:24:36.671Z,8.03
2018-06-30T00:27:10.474Z,8.13
2018-06-30T00:29:38.283Z,8.27
2018-06-30T00:32:06.195Z,7.80
2018-06-30T00:34:33.984Z,7.83
2018-06-30T00:37:02.040Z,9.43
2018-06-30T00:39:30.195Z,7.87
2018-06-30T00:41:58.016Z,9.03
2018-06-30T00:44:25.783Z,8.07
2018-06-30T00:46:53.792Z,6.93
2018-06-30T00:49:21.682Z,7.37
2018-06-30T00:51:50.198Z,7.03
2018-06-30T00:54:18.027Z,8.03
2018-06-30T00:56:45.803Z,6.63
2018-06-30T00:59:13.935Z,7.13
2018-06-30T01:01:41.879Z,8.00
2018-06-30T01:04:09.855Z,7.60
2018-06-30T01:06:37.663Z,7.80
2018-06-30T01:09:06.183Z,7.10
2018-06-30T01:11:33.955Z,9.00
2018-06-30T01:14:01.997Z,7.97
2018-06-30T01:16:29.804Z,8.27
2018-06-30T01:18:57.783Z,9.37
2018-06-30T01:21:25.574Z,8.60
2018-06-30T01:23:53.374Z,7.57
2018-06-30T01:26:21.455Z,7.00
2018-06-30T01:28:49.355Z,8.27
2018-06-30T01:31:17.754Z,9.17
2018-06-30T01:33:45.526Z,8.57
2018-06-30T01:36:13.979Z,7.77
2018-06-30T01:38:41.764Z,8.10
2018-06-30T01:41:09.580Z,8.70
2018-06-30T01:43:37.559Z,8.97
2018-06-30T01:46:05.411Z,9.30
2018-06-30T01:48:33.746Z,7.97
2018-06-30T01:51:01.555Z,8.17
2018-06-30T01:53:29.374Z,8.40
2018-06-30T01:55:57.487Z,7.83
2018-06-30T01:58:25.279Z,8.07
2018-06-30T02:00:53.069Z,8.10
2018-06-30T02:03:20.870Z,8.07
2018-06-30T02:05:49.155Z,7.73
2018-06-30T02:08:17.036Z,8.83
2018-06-30T02:10:44.837Z,7.73
2018-06-30T02:13:12.673Z,7.67
2018-06-30T02:15:40.596Z,8.23
2018-06-30T02:18:08.553Z,7.87
2018-06-30T02:20:36.431Z,8.03
2018-06-30T02:23:05.282Z,8.60
2018-06-30T02:25:33.239Z,7.50
2018-06-30T02:28:01.226Z,8.33
2018-06-30T02:30:29.020Z,7.77
2018-06-30T02:32:56.855Z,8.43
2018-06-30T02:35:24.805Z,7.47
2018-06-30T02:37:53.608Z,7.60
2018-06-30T02:40:21.490Z,7.33
2018-06-30T02:42:49.254Z,8.03
2018-06-30T02:45:17.104Z,7.67
2018-06-30T02:47:45.244Z,9.00
2018-06-30T02:50:13.088Z,9.60
2018-06-30T02:52:40.855Z,8.77
2018-06-30T02:55:08.928Z,8.90
2018-06-30T02:57:36.743Z,9.27
2018-06-30T03:00:04.705Z,9.03
2018-06-30T03:02:32.707Z,9.80
2018-06-30T03:05:00.523Z,10.20
2018-06-30T03:07:28.407Z,10.47
2018-06-30T03:09:56.460Z,10.03
2018-06-30T03:12:24.266Z,8.50
2018-06-30T03:14:52.068Z,7.93
2018-06-30T03:17:20.084Z,8.03
2018-06-30T03:19:48.056Z,9.37
2018-06-30T03:22:15.939Z,9.57
2018-06-30T03:24:44.924Z,9.70
2018-06-30T03:27:12.727Z,10.53
2018-06-30T03:29:40.843Z,293.13
2018-06-30T03:32:08.738Z,10.40
2018-06-30T03:34:36.549Z,10.17
2018-06-30T03:37:04.844Z,8.87
2018-06-30T03:39:32.667Z,10.07
2018-06-30T03:42:00.474Z,9.37
2018-06-30T03:44:28.879Z,9.27
2018-06-30T03:46:56.820Z,9.77
2018-06-30T03:49:24.664Z,9.77
2018-06-30T03:51:52.632Z,8.33
2018-06-30T03:54:20.623Z,8.83
2018-06-30T03:56:48.440Z,8.70
2018-06-30T03:59:16.323Z,9.63
2018-06-30T04:01:44.156Z,9.37
2018-06-30T04:04:11.955Z,7.83
2018-06-30T04:06:39.756Z,7.33
2018-06-30T04:09:08.963Z,9.00
2018-06-30T04:11:37.359Z,8.37
2018-06-30T04:14:05.231Z,9.87
2018-06-30T04:16:33.025Z,9.10
2018-06-30T04:19:05.756Z,10.40
2018-06-30T04:21:33.543Z,9.87
2018-06-30T04:24:01.360Z,9.97
2018-06-30T04:26:29.376Z,9.57
2018-06-30T04:28:57.339Z,10.33
2018-06-30T04:31:25.215Z,10.83
2018-06-30T04:33:53.108Z,8.80
2018-06-30T04:36:21.158Z,11.70
2018-06-30T04:38:48.943Z,11.07
2018-06-30T04:41:16.935Z,11.70
2018-06-30T04:43:44.761Z,11.80
2018-06-30T04:46:12.558Z,10.37
2018-06-30T04:48:40.370Z,13.23
2018-06-30T04:51:08.321Z,10.50
2018-06-30T04:53:36.022Z,12.40
2018-06-30T04:56:04.010Z,9.90
2018-06-30T04:58:31.802Z,14.27
2018-06-30T05:00:59.631Z,14.53
2018-06-30T05:03:27.423Z,14.20
2018-06-30T05:05:55.374Z,14.47
2018-06-30T05:08:23.206Z,15.53
2018-06-30T05:10:51.023Z,14.57
2018-06-30T05:13:18.818Z,16.00
2018-06-30T05:15:46.759Z,15.47
2018-06-30T05:18:14.622Z,15.87
2018-06-30T05:20:42.684Z,18.43
2018-06-30T05:23:10.495Z,16.73
2018-06-30T05:25:38.355Z,17.07
2018-06-30T05:28:06.256Z,16.90
2018-06-30T05:30:34.082Z,17.10
2018-06-30T05:33:01.914Z,14.80
2018-06-30T05:35:29.729Z,16.80
2018-06-30T05:37:57.700Z,16.50
2018-06-30T05:40:25.558Z,15.77
2018-06-30T05:42:53.379Z,17.63
2018-06-30T05:45:21.363Z,16.90
2018-06-30T05:47:49.134Z,16.13
2018-06-30T05:50:16.938Z,17.63
2018-06-30T05:52:45.754Z,16.53
2018-06-30T05:55:13.743Z,17.57
2018-06-30T05:57:41.674Z,16.77
2018-06-30T06:00:09.642Z,17.33
2018-06-30T06:02:37.546Z,17.83
2018-06-30T06:05:05.986Z,15.47
2018-06-30T06:07:33.811Z,16.83
2018-06-30T06:10:01.708Z,17.03
2018-06-30T06:12:29.493Z,17.10
2018-06-30T06:14:57.292Z,11.57
2018-06-30T06:17:25.107Z,16.63
2018-06-30T06:19:52.904Z,16.57
2018-06-30T06:22:20.943Z,9.77
2018-06-30T06:24:48.776Z,10.50
2018-06-30T06:27:16.591Z,10.83
2018-06-30T06:29:44.373Z,10.60
2018-06-30T06:32:12.279Z,10.73
2018-06-30T06:34:40.105Z,12.17
2018-06-30T06:37:08.887Z,11.63
2018-06-30T06:39:36.658Z,19.27
2018-06-30T06:42:04.446Z,11.77
2018-06-30T06:44:32.306Z,12.50
2018-06-30T06:47:00.108Z,13.33
2018-06-30T06:49:27.982Z,15.83
2018-06-30T06:51:55.990Z,17.83
2018-06-30T06:54:24.607Z,18.13
2018-06-30T06:56:52.563Z,12.63
2018-06-30T06:59:20.394Z,11.70
2018-06-30T07:01:48.335Z,18.97
2018-06-30T07:04:16.191Z,12.53
2018-06-30T07:06:44.063Z,12.73
2018-06-30T07:09:12.183Z,11.30
2018-06-30T07:11:40.716Z,15.83
2018-06-30T07:14:09.570Z,16.40
2018-06-30T07:16:37.433Z,12.57
2018-06-30T07:19:05.351Z,16.00
2018-06-30T07:21:33.338Z,13.07
2018-06-30T07:24:01.499Z,12.73
2018-06-30T07:26:29.305Z,11.10
2018-06-30T07:28:57.183Z,12.90
2018-06-30T07:31:24.997Z,20.10
2018-06-30T07:33:52.770Z,15.70
2018-06-30T07:36:21.021Z,12.67
2018-06-30T07:38:49.054Z,12.10
2018-06-30T07:41:16.861Z,13.10
2018-06-30T07:43:44.685Z,16.27
2018-06-30T07:46:12.451Z,17.27
2018-06-30T07:48:40.279Z,14.60
2018-06-30T07:51:08.222Z,17.57
2018-06-30T07:53:36.170Z,12.47
2018-06-30T07:56:04.162Z,11.57
2018-06-30T07:58:31.975Z,16.80
2018-06-30T08:01:00.104Z,16.83
2018-06-30T08:03:28.031Z,12.73
2018-06-30T08:05:55.852Z,15.30
2018-06-30T08:08:23.753Z,26.17
2018-06-30T08:10:51.591Z,15.20
2018-06-30T08:13:19.485Z,16.20
2018-06-30T08:15:47.448Z,12.90
2018-06-30T08:18:15.327Z,11.27
2018-06-30T08:20:43.275Z,92.53
2018-06-30T08:23:11.208Z,31.80
2018-06-30T08:25:39.997Z,14.70
2018-06-30T08:28:07.876Z,15.00
2018-06-30T08:30:35.907Z,14.03
2018-06-30T08:33:03.897Z,14.67
2018-06-30T08:35:31.719Z,13.20
2018-06-30T08:37:59.679Z,11.80
2018-06-30T08:40:27.542Z,16.23
2018-06-30T08:42:56.203Z,12.57
2018-06-30T08:45:24.170Z,11.77
2018-06-30T08:47:52.036Z,14.40
2018-06-30T08:50:19.908Z,13.87
2018-06-30T08:52:47.866Z,15.20
2018-06-30T08:55:15.733Z,469.97
2018-06-30T08:57:43.975Z,301.97
2018-06-30T09:00:12.040Z,283.23
2018-06-30T09:02:39.863Z,78.60
2018-06-30T09:05:07.710Z,26.50
2018-06-30T09:07:35.673Z,21.07
2018-06-30T09:10:04.335Z,21.57
2018-06-30T09:12:32.200Z,18.93
2018-06-30T09:15:00.096Z,11.77
2018-06-30T09:17:27.973Z,18.50
2018-06-30T09:19:56.361Z,89.90
2018-06-30T09:22:24.851Z,43.10
2018-06-30T09:24:52.690Z,106.93
2018-06-30T09:27:20.775Z,50.57
2018-06-30T09:29:48.645Z,26.27
2018-06-30T09:32:16.600Z,20.63
2018-06-30T09:34:44.537Z,46.00
2018-06-30T09:37:12.684Z,494.03
2018-06-30T09:39:40.678Z,311.50
2018-06-30T09:42:08.523Z,112.23
2018-06-30T09:44:36.454Z,83.80
2018-06-30T09:47:04.327Z,44.67
2018-06-30T09:49:32.447Z,29.93
2018-06-30T09:52:00.222Z,28.07
2018-06-30T09:54:28.043Z,9.47
2018-06-30T09:56:56.652Z,23.40
2018-06-30T09:59:24.465Z,27.50
2018-06-30T10:01:52.932Z,20.03
2018-06-30T10:04:20.711Z,24.77
2018-06-30T10:06:48.531Z,19.07
2018-06-30T10:09:16.677Z,17.97
2018-06-30T10:11:44.682Z,20.53
2018-06-30T10:14:12.480Z,21.73
2018-06-30T10:16:40.286Z,18.53
2018-06-30T10:19:08.165Z,13.20
2018-06-30T10:21:36.197Z,12.07
2018-06-30T10:24:04.032Z,17.50
2018-06-30T10:26:31.918Z,12.90
2018-06-30T10:28:59.799Z,12.47
2018-06-30T10:31:27.577Z,13.43
2018-06-30T10:33:55.378Z,12.00
2018-06-30T10:36:23.271Z,8.77
2018-06-30T10:38:51.075Z,10.80
2018-06-30T10:41:18.862Z,9.63
2018-06-30T10:43:46.784Z,10.70
2018-06-30T10:46:14.618Z,8.57
2018-06-30T10:48:42.451Z,7.77
2018-06-30T10:51:10.500Z,7.90
2018-06-30T10:53:38.515Z,7.40
2018-06-30T10:56:06.323Z,8.67
2018-06-30T10:58:34.216Z,8.43
2018-06-30T11:01:02.252Z,8.50
2018-06-30T11:03:30.494Z,8.53
2018-06-30T11:05:58.366Z,7.87
2018-06-30T11:08:26.314Z,7.40
2018-06-30T11:10:54.227Z,8.10
2018-06-30T11:13:22.174Z,7.90
2018-06-30T11:15:50.250Z,7.50
2018-06-30T11:18:18.041Z,7.80
2018-06-30T11:20:45.885Z,7.43
2018-06-30T11:23:13.846Z,7.23
2018-06-30T11:25:41.916Z,7.43
2018-06-30T11:28:09.750Z,7.30
2018-06-30T11:30:37.706Z,6.47
2018-06-30T11:33:05.512Z,6.63
2018-06-30T11:35:33.466Z,6.60
2018-06-30T11:38:01.294Z,7.40
2018-06-30T11:40:29.223Z,7.17
2018-06-30T11:42:57.563Z,6.63
2018-06-30T11:45:25.448Z,5.80
2018-06-30T11:47:53.287Z,6.33
2018-06-30T11:50:21.435Z,6.50
2018-06-30T11:52:49.326Z,6.80
2018-06-30T11:55:17.315Z,5.73
2018-06-30T11:57:45.762Z,5.50
2018-06-30T12:00:14.728Z,6.20
2018-06-30T12:02:42.528Z,7.40
2018-06-30T12:05:10.342Z,7.77
2018-06-30T12:07:38.644Z,5.67
2018-06-30T12:10:06.661Z,5.27
2018-06-30T12:12:34.944Z,7.23
2018-06-30T12:15:02.991Z,6.87
2018-06-30T12:17:31.604Z,9.27
2018-06-30T12:19:59.513Z,7.57
2018-06-30T12:22:27.536Z,5.07
2018-06-30T12:24:55.351Z,4.93
2018-06-30T12:27:23.223Z,4.27
2018-06-30T12:29:51.140Z,4.90
2018-06-30T12:32:19.076Z,5.20
2018-06-30T12:34:47.002Z,5.63
2018-06-30T12:37:15.027Z,5.30
2018-06-30T12:39:43.054Z,4.90
2018-06-30T12:42:11.097Z,4.90
2018-06-30T12:44:39.135Z,5.03
2018-06-30T12:47:07.052Z,5.93
2018-06-30T12:49:34.856Z,4.07
2018-06-30T12:52:02.792Z,4.07
2018-06-30T12:54:31.073Z,4.87
2018-06-30T12:56:59.418Z,5.20
2018-06-30T12:59:27.275Z,5.10
2018-06-30T13:01:55.354Z,5.90
2018-06-30T13:04:23.375Z,5.60
2018-06-30T13:06:51.256Z,5.43
2018-06-30T13:09:19.368Z,5.58
2018-06-30T13:11:47.269Z,5.57
2018-06-30T13:14:15.088Z,3.80
2018-06-30T13:16:43.172Z,4.17
2018-06-30T13:19:12.210Z,4.77
2018-06-30T13:21:40.046Z,3.93
2018-06-30T13:24:08.387Z,4.47
2018-06-30T13:26:36.291Z,5.23
2018-06-30T13:29:04.343Z,5.27
2018-06-30T13:31:32.136Z,5.13
2018-06-30T13:34:00.208Z,4.40
2018-06-30T13:36:28.110Z,5.33
2018-06-30T13:38:56.003Z,4.97
2018-06-30T13:41:24.151Z,5.20
2018-06-30T13:43:51.968Z,4.40
2018-06-30T13:46:20.345Z,5.37
2018-06-30T13:48:48.331Z,4.93
2018-06-30T13:51:17.121Z,5.60
2018-06-30T13:53:45.385Z,5.60
2018-06-30T13:56:13.299Z,6.40
2018-06-30T13:58:41.187Z,5.40
2018-06-30T14:01:09.090Z,6.47
2018-06-30T14:03:36.945Z,5.50
2018-06-30T14:06:05.033Z,6.07
2018-06-30T14:08:33.003Z,5.70
2018-06-30T14:11:00.840Z,5.50
2018-06-30T14:13:28.718Z,5.43
2018-06-30T14:15:56.509Z,5.30
2018-06-30T14:18:24.546Z,6.63
2018-06-30T14:20:52.539Z,4.77
2018-06-30T14:23:20.446Z,5.13
2018-06-30T14:25:48.470Z,4.53
2018-06-30T14:28:16.368Z,4.40
2018-06-30T14:30:44.497Z,5.67
2018-06-30T14:33:12.296Z,5.00
2018-06-30T14:35:40.100Z,5.53
2018-06-30T14:38:07.956Z,5.70
2018-06-30T14:40:35.799Z,5.43
2018-06-30T14:43:03.956Z,7.43
2018-06-30T14:45:31.817Z,5.93
2018-06-30T14:47:59.686Z,5.53
2018-06-30T14:50:27.588Z,5.40
2018-06-30T14:52:55.513Z,5.40
2018-06-30T14:55:23.319Z,5.77
2018-06-30T14:57:51.389Z,5.70
2018-06-30T15:00:19.248Z,5.80
2018-06-30T15:02:47.075Z,6.00
2018-06-30T15:05:14.883Z,6.47
2018-06-30T15:07:42.698Z,5.37
2018-06-30T15:10:10.589Z,5.33
2018-06-30T15:12:38.447Z,5.60
2018-06-30T15:15:06.592Z,5.73
2018-06-30T15:17:35.490Z,5.77
2018-06-30T15:20:03.689Z,6.13
2018-06-30T15:22:31.544Z,5.80
2018-06-30T15:24:59.364Z,5.47
2018-06-30T15:27:27.442Z,5.67
2018-06-30T15:29:55.352Z,5.83
2018-06-30T15:32:23.143Z,5.80
2018-06-30T15:34:50.946Z,4.97
2018-06-30T15:37:18.771Z,5.93
2018-06-30T15:39:46.618Z,5.93
2018-06-30T15:42:14.851Z,5.83
2018-06-30T15:44:42.958Z,6.47
2018-06-30T15:47:11.295Z,5.93
2018-06-30T15:49:39.282Z,6.23
2018-06-30T15:52:07.329Z,6.23
2018-06-30T15:54:35.136Z,5.80
2018-06-30T15:57:03.036Z,10.60
2018-06-30T15:59:30.861Z,6.10
2018-06-30T16:01:58.778Z,8.57
2018-06-30T16:04:26.660Z,5.83
2018-06-30T16:06:54.591Z,6.33
2018-06-30T16:09:22.599Z,5.83
2018-06-30T16:11:50.432Z,6.07
2018-06-30T16:14:18.587Z,8.57
2018-06-30T16:16:46.411Z,6.83
2018-06-30T16:19:14.247Z,5.63
2018-06-30T16:21:42.244Z,6.47
2018-06-30T16:24:10.074Z,6.53
2018-06-30T16:26:37.902Z,6.47
2018-06-30T16:29:05.788Z,6.53
2018-06-30T16:31:33.739Z,6.83
2018-06-30T16:34:01.579Z,6.43
2018-06-30T16:36:29.450Z,7.40
2018-06-30T16:38:57.279Z,6.23
2018-06-30T16:41:25.262Z,7.13
2018-06-30T16:43:53.140Z,10.33
2018-06-30T16:46:21.193Z,9.20
2018-06-30T16:48:49.044Z,6.43
2018-06-30T16:51:16.974Z,8.27
2018-06-30T16:53:44.829Z,13.03
2018-06-30T16:56:12.637Z,7.63
2018-06-30T16:58:40.594Z,6.50
2018-06-30T17:01:08.475Z,6.57
2018-06-30T17:03:36.434Z,6.93
2018-06-30T17:06:04.361Z,5.50
2018-06-30T17:08:32.157Z,6.57
2018-06-30T17:11:00.212Z,9.97
2018-06-30T17:13:28.500Z,8.57
2018-06-30T17:15:56.987Z,7.50
2018-06-30T17:18:25.025Z,8.47
2018-06-30T17:20:52.923Z,6.60
2018-06-30T17:23:20.828Z,7.30
2018-06-30T17:25:48.717Z,7.10
2018-06-30T17:28:16.747Z,8.33
2018-06-30T17:30:45.603Z,6.93
2018-06-30T17:33:13.515Z,10.17
2018-06-30T17:35:42.030Z,8.33
2018-06-30T17:38:09.918Z,8.73
2018-06-30T17:40:38.008Z,9.37
2018-06-30T17:43:07.084Z,9.03
2018-06-30T17:45:35.090Z,9.20
2018-06-30T17:48:03.281Z,10.00
2018-06-30T17:50:31.166Z,8.50
2018-06-30T17:52:59.063Z,7.83
2018-06-30T17:55:26.946Z,7.67
2018-06-30T17:57:54.792Z,9.13
2018-06-30T18:00:22.903Z,8.83
2018-06-30T18:02:51.335Z,6.80
2018-06-30T18:05:19.479Z,8.47
2018-06-30T18:07:47.525Z,8.77
2018-06-30T18:10:15.692Z,8.87
2018-06-30T18:12:43.522Z,8.77
2018-06-30T18:15:11.395Z,8.50
2018-06-30T18:17:39.431Z,8.10
2018-06-30T18:20:07.320Z,7.90
2018-06-30T18:22:35.237Z,7.53
2018-06-30T18:25:03.455Z,8.20
2018-06-30T18:27:32.439Z,7.63
2018-06-30T18:30:00.267Z,11.23
2018-06-30T18:32:28.087Z,7.83
2018-06-30T18:34:55.879Z,9.20
2018-06-30T18:37:23.816Z,7.37
2018-06-30T18:39:51.776Z,8.30
2018-06-30T18:42:19.946Z,8.80
2018-06-30T18:44:47.842Z,13.70
2018-06-30T18:47:15.703Z,10.17
2018-06-30T18:49:43.533Z,10.17
2018-06-30T18:52:11.576Z,7.50
2018-06-30T18:54:39.419Z,11.97
2018-06-30T18:57:07.311Z,8.73
2018-06-30T18:59:35.107Z,7.60
2018-06-30T19:02:03.229Z,6.60
2018-06-30T19:04:31.123Z,8.33
2018-06-30T19:06:59.071Z,8.10
2018-06-30T19:09:26.934Z,6.73
2018-06-30T19:11:54.668Z,8.57
2018-06-30T19:14:22.531Z,6.97
2018-06-30T19:16:50.347Z,8.93
2018-06-30T19:19:18.222Z,6.70
2018-06-30T19:21:46.420Z,6.20
2018-06-30T19:24:14.419Z,6.33
2018-06-30T19:26:42.277Z,7.93
2018-06-30T19:29:10.272Z,8.13
2018-06-30T19:31:38.100Z,6.23
2018-06-30T19:34:05.940Z,6.40
2018-06-30T19:36:33.982Z,5.90
2018-06-30T19:39:02.085Z,5.87
2018-06-30T19:41:30.205Z,23.93
2018-06-30T19:43:57.987Z,7.40
2018-06-30T19:46:26.040Z,9.80
2018-06-30T19:48:54.219Z,18.57
2018-06-30T19:51:22.284Z,8.77
2018-06-30T19:53:50.112Z,7.33
2018-06-30T19:56:17.975Z,15.90
2018-06-30T19:58:45.859Z,8.87
2018-06-30T20:01:13.983Z,13.47
2018-06-30T20:03:42.024Z,6.60
2018-06-30T20:06:10.039Z,6.37
2018-06-30T20:08:38.003Z,5.53
2018-06-30T20:11:06.212Z,7.40
2018-06-30T20:13:34.091Z,6.57
2018-06-30T20:16:02.352Z,6.60
2018-06-30T20:18:30.190Z,185.57
2018-06-30T20:20:58.289Z,13.07
2018-06-30T20:23:26.248Z,5.10
2018-06-30T20:25:54.263Z,5.03
2018-06-30T20:28:22.273Z,4.87
2018-06-30T20:30:50.263Z,4.83
2018-06-30T20:33:18.111Z,3.80
2018-06-30T20:35:45.935Z,4.40
2018-06-30T20:38:13.755Z,4.83
2018-06-30T20:40:41.762Z,4.10
2018-06-30T20:43:09.782Z,3.43
2018-06-30T20:45:37.627Z,3.97
2018-06-30T20:48:05.484Z,3.83
2018-06-30T20:50:33.506Z,4.10
2018-06-30T20:53:01.379Z,3.60
2018-06-30T20:55:29.324Z,6.23
2018-06-30T20:57:57.276Z,3.93
2018-06-30T21:00:25.192Z,3.50
2018-06-30T21:02:53.655Z,4.13
2018-06-30T21:05:21.478Z,3.60
2018-06-30T21:07:49.395Z,3.67
2018-06-30T21:10:17.371Z,5.70
2018-06-30T21:12:45.351Z,15.43
2018-06-30T21:15:13.293Z,3.73
2018-06-30T21:17:41.185Z,3.57
2018-06-30T21:20:09.674Z,2.60
2018-06-30T21:22:37.495Z,3.80
2018-06-30T21:25:05.538Z,6.90
2018-06-30T21:27:33.392Z,3.73
2018-06-30T21:30:01.642Z,3.17
2018-06-30T21:32:29.448Z,3.43
2018-06-30T21:34:58.235Z,3.27
2018-06-30T21:37:26.207Z,9.90
2018-06-30T21:39:54.172Z,9.40
2018-06-30T21:42:22.001Z,8.00
2018-06-30T21:44:49.807Z,74.23
2018-06-30T21:47:17.688Z,527.10
2018-06-30T21:49:45.512Z,204.73
2018-06-30T21:52:13.463Z,130.97
2018-06-30T21:54:41.414Z,128.50
2018-06-30T21:57:09.276Z,152.27
2018-06-30T21:59:37.146Z,32.47
2018-06-30T22:02:07.394Z,3.07
2018-06-30T22:04:35.992Z,115.27
2018-06-30T22:07:03.992Z,1.70
2018-06-30T22:09:33.151Z,66.23
2018-06-30T22:12:00.995Z,2.13
2018-06-30T22:14:28.855Z,252.93
2018-06-30T22:16:56.856Z,479.27
2018-06-30T22:19:24.825Z,363.10
2018-06-30T22:21:52.647Z,351.47
2018-06-30T22:24:20.653Z,320.93
2018-06-30T22:26:48.526Z,298.10
2018-06-30T22:29:16.449Z,250.03
2018-06-30T22:31:44.274Z,260.97
2018-06-30T22:34:12.086Z,271.80
2018-06-30T22:36:39.855Z,267.23
2018-06-30T22:39:08.863Z,255.57
2018-06-30T22:41:36.823Z,271.67
2018-06-30T22:44:04.702Z,288.37
2018-06-30T22:46:32.607Z,265.40
2018-06-30T22:49:00.439Z,2.17
2018-06-30T22:51:28.626Z,268.50
2018-06-30T22:53:56.429Z,281.17
2018-06-30T22:56:24.392Z,296.63
2018-06-30T22:58:52.391Z,281.67
2018-06-30T23:01:20.276Z,296.43
2018-06-30T23:03:48.321Z,286.93
2018-06-30T23:06:16.146Z,291.33
2018-06-30T23:08:49.635Z,298.70
2018-06-30T23:11:17.443Z,255.87
2018-06-30T23:13:45.294Z,286.37
2018-06-30T23:16:13.190Z,288.13
2018-06-30T23:18:41.163Z,147.07
2018-06-30T23:21:08.970Z,121.57
2018-06-30T23:23:37.738Z,303.03
2018-06-30T23:26:05.519Z,320.23
2018-06-30T23:28:33.438Z,293.80
2018-06-30T23:31:01.431Z,284.10
2018-06-30T23:33:29.432Z,288.63
2018-06-30T23:35:57.251Z,281.40
2018-06-30T23:38:25.272Z,3.03
2018-06-30T23:40:53.088Z,191.60
2018-06-30T23:43:20.943Z,6.17
2018-06-30T23:45:48.742Z,169.70
2018-06-30T23:48:17.356Z,1.70
2018-06-30T23:50:45.120Z,287.40
2018-06-30T23:53:12.947Z,4.13
2018-06-30T23:55:40.846Z,1.87
2018-06-30T23:58:08.858Z,2.77
